sensor_id;sensor_type;location;lat;lon;timestamp;pressure;altitude;pressure_sealevel;temperature;humidity
59274;BME280;45044;41.572;24.730;2023-05-23T00:01:24;91105.91;;;10.60;100.00
59274;BME280;45044;41.572;24.730;2023-05-23T00:03:50;91108.13;;;10.47;100.00
59274;BME280;45044;41.572;24.730;2023-05-23T00:06:21;91109.28;;;10.57;100.00
59274;BME280;45044;41.572;24.730;2023-05-23T00:08:48;91103.66;;;10.62;100.00
59274;BME280;45044;41.572;24.730;2023-05-23T00:11:16;91103.63;;;10.70;100.00
59274;BME280;45044;41.572;24.730;2023-05-23T00:13:44;91104.78;;;10.69;100.00
59274;BME280;45044;41.572;24.730;2023-05-23T00:16:11;91110.38;;;10.74;100.00
59274;BME280;45044;41.572;24.730;2023-05-23T00:18:39;91096.50;;;10.66;100.00
59274;BME280;45044;41.572;24.730;2023-05-23T00:21:08;91104.75;;;10.72;100.00
59274;BME280;45044;41.572;24.730;2023-05-23T00:23:35;91096.13;;;10.72;100.00
59274;BME280;45044;41.572;24.730;2023-05-23T00:26:02;91091.59;;;10.80;100.00
59274;BME280;45044;41.572;24.730;2023-05-23T00:28:29;91092.34;;;10.73;100.00
59274;BME280;45044;41.572;24.730;2023-05-23T00:30:56;91097.63;;;10.58;100.00
59274;BME280;45044;41.572;24.730;2023-05-23T00:33:23;91093.91;;;10.59;100.00
59274;BME280;45044;41.572;24.730;2023-05-23T00:35:50;91099.16;;;10.52;100.00
59274;BME280;45044;41.572;24.730;2023-05-23T00:38:17;91094.63;;;10.56;100.00
59274;BME280;45044;41.572;24.730;2023-05-23T00:40:44;91092.38;;;10.40;100.00
59274;BME280;45044;41.572;24.730;2023-05-23T00:43:11;91086.38;;;10.32;100.00
59274;BME280;45044;41.572;24.730;2023-05-23T00:45:38;91093.13;;;10.33;100.00
59274;BME280;45044;41.572;24.730;2023-05-23T00:48:06;91098.38;;;10.26;100.00
59274;BME280;45044;41.572;24.730;2023-05-23T00:50:33;91090.13;;;10.09;100.00
59274;BME280;45044;41.572;24.730;2023-05-23T00:53:01;91092.00;;;9.87;100.00
59274;BME280;45044;41.572;24.730;2023-05-23T00:55:29;91083.00;;;9.91;100.00
59274;BME280;45044;41.572;24.730;2023-05-23T00:57:56;91083.72;;;9.74;100.00
59274;BME280;45044;41.572;24.730;2023-05-23T01:00:23;91086.75;;;9.79;100.00
59274;BME280;45044;41.572;24.730;2023-05-23T01:02:51;91074.69;;;9.64;100.00
59274;BME280;45044;41.572;24.730;2023-05-23T01:05:20;91087.47;;;9.69;100.00
59274;BME280;45044;41.572;24.730;2023-05-23T01:07:49;91082.59;;;9.67;100.00
59274;BME280;45044;41.572;24.730;2023-05-23T01:10:19;91078.84;;;9.68;100.00
59274;BME280;45044;41.572;24.730;2023-05-23T01:13:33;91070.53;;;9.33;100.00
59274;BME280;45044;41.572;24.730;2023-05-23T01:21:54;91073.09;;;9.15;100.00
59274;BME280;45044;41.572;24.730;2023-05-23T01:24:40;91070.78;;;9.03;100.00
59274;BME280;45044;41.572;24.730;2023-05-23T01:30:06;91073.44;;;9.10;100.00
59274;BME280;45044;41.572;24.730;2023-05-23T01:32:36;91068.22;;;9.14;100.00
59274;BME280;45044;41.572;24.730;2023-05-23T01:35:04;91061.25;;;8.69;100.00
59274;BME280;45044;41.572;24.730;2023-05-23T01:37:31;91061.00;;;8.85;100.00
59274;BME280;45044;41.572;24.730;2023-05-23T01:39:58;91060.63;;;8.90;100.00
59274;BME280;45044;41.572;24.730;2023-05-23T01:42:25;91062.47;;;8.86;100.00
59274;BME280;45044;41.572;24.730;2023-05-23T01:44:53;91058.44;;;9.00;100.00
59274;BME280;45044;41.572;24.730;2023-05-23T01:47:20;91060.31;;;9.03;100.00
59274;BME280;45044;41.572;24.730;2023-05-23T01:49:47;91068.94;;;9.07;100.00
59274;BME280;45044;41.572;24.730;2023-05-23T01:52:14;91059.00;;;8.67;100.00
59274;BME280;45044;41.572;24.730;2023-05-23T01:54:42;91067.31;;;8.77;100.00
59274;BME280;45044;41.572;24.730;2023-05-23T01:57:10;91065.81;;;8.76;100.00
59274;BME280;45044;41.572;24.730;2023-05-23T01:59:37;91057.53;;;8.66;100.00
59274;BME280;45044;41.572;24.730;2023-05-23T02:02:04;91055.66;;;8.63;100.00
59274;BME280;45044;41.572;24.730;2023-05-23T02:04:31;91064.59;;;8.62;100.00
59274;BME280;45044;41.572;24.730;2023-05-23T02:06:58;91046.28;;;8.66;100.00
59274;BME280;45044;41.572;24.730;2023-05-23T02:09:34;91053.44;;;8.72;100.00
59274;BME280;45044;41.572;24.730;2023-05-23T02:12:01;91048.56;;;8.71;100.00
59274;BME280;45044;41.572;24.730;2023-05-23T02:14:28;91053.81;;;8.74;100.00
59274;BME280;45044;41.572;24.730;2023-05-23T02:16:55;91056.44;;;8.74;100.00
59274;BME280;45044;41.572;24.730;2023-05-23T02:19:22;91050.31;;;8.48;100.00
59274;BME280;45044;41.572;24.730;2023-05-23T02:21:49;91067.91;;;8.55;100.00
59274;BME280;45044;41.572;24.730;2023-05-23T02:24:15;91064.16;;;8.53;100.00
59274;BME280;45044;41.572;24.730;2023-05-23T02:26:42;91065.63;;;8.46;100.00
59274;BME280;45044;41.572;24.730;2023-05-23T02:29:09;91069.22;;;8.27;100.00
59274;BME280;45044;41.572;24.730;2023-05-23T02:31:35;91066.28;;;8.29;100.00
59274;BME280;45044;41.572;24.730;2023-05-23T02:34:02;91062.47;;;8.22;100.00
59274;BME280;45044;41.572;24.730;2023-05-23T02:36:29;91067.38;;;8.27;100.00
59274;BME280;45044;41.572;24.730;2023-05-23T02:38:59;91061.75;;;8.25;100.00
59274;BME280;45044;41.572;24.730;2023-05-23T02:41:26;91059.91;;;8.30;100.00
59274;BME280;45044;41.572;24.730;2023-05-23T02:43:54;91049.78;;;8.24;100.00
59274;BME280;45044;41.572;24.730;2023-05-23T02:46:21;91053.53;;;8.27;100.00
59274;BME280;45044;41.572;24.730;2023-05-23T02:48:48;91062.47;;;8.22;100.00
59274;BME280;45044;41.572;24.730;2023-05-23T02:51:14;91056.84;;;8.20;100.00
59274;BME280;45044;41.572;24.730;2023-05-23T02:53:41;91058.75;;;8.27;100.00
59274;BME280;45044;41.572;24.730;2023-05-23T02:56:08;91053.44;;;8.16;100.00
59274;BME280;45044;41.572;24.730;2023-05-23T02:58:35;91062.03;;;7.64;100.00
59274;BME280;45044;41.572;24.730;2023-05-23T03:01:02;91069.53;;;7.69;100.00
59274;BME280;45044;41.572;24.730;2023-05-23T03:03:32;91054.50;;;7.59;100.00
59274;BME280;45044;41.572;24.730;2023-05-23T03:06:01;91060.53;;;7.63;100.00
59274;BME280;45044;41.572;24.730;2023-05-23T03:08:30;91050.94;;;7.82;100.00
59274;BME280;45044;41.572;24.730;2023-05-23T03:10:57;91051.75;;;7.86;100.00
59274;BME280;45044;41.572;24.730;2023-05-23T03:13:24;91049.13;;;7.86;100.00
59274;BME280;45044;41.572;24.730;2023-05-23T03:15:50;91033.84;;;7.91;100.00
59274;BME280;45044;41.572;24.730;2023-05-23T03:18:17;91051.53;;;8.09;100.00
59274;BME280;45044;41.572;24.730;2023-05-23T03:20:44;91054.13;;;8.06;100.00
59274;BME280;45044;41.572;24.730;2023-05-23T03:23:11;91050.44;;;8.10;100.00
59274;BME280;45044;41.572;24.730;2023-05-23T03:25:37;91057.59;;;8.21;100.00
59274;BME280;45044;41.572;24.730;2023-05-23T03:28:04;91056.41;;;8.11;100.00
59274;BME280;45044;41.572;24.730;2023-05-23T03:30:31;91049.00;;;8.20;100.00
59274;BME280;45044;41.572;24.730;2023-05-23T03:32:58;91047.78;;;8.07;100.00
59274;BME280;45044;41.572;24.730;2023-05-23T03:35:24;91052.34;;;8.17;100.00
59274;BME280;45044;41.572;24.730;2023-05-23T03:37:51;91065.50;;;8.24;100.00
59274;BME280;45044;41.572;24.730;2023-05-23T03:40:18;91053.22;;;7.83;100.00
59274;BME280;45044;41.572;24.730;2023-05-23T03:42:47;91055.59;;;7.99;100.00
59274;BME280;45044;41.572;24.730;2023-05-23T03:45:15;91067.00;;;7.76;100.00
59274;BME280;45044;41.572;24.730;2023-05-23T03:47:41;91053.63;;;7.89;100.00
59274;BME280;45044;41.572;24.730;2023-05-23T03:50:09;91063.16;;;8.12;100.00
59274;BME280;45044;41.572;24.730;2023-05-23T03:52:35;91056.47;;;8.18;100.00
59274;BME280;45044;41.572;24.730;2023-05-23T03:55:03;91062.50;;;8.26;100.00
59274;BME280;45044;41.572;24.730;2023-05-23T03:57:29;91065.56;;;8.35;100.00
59274;BME280;45044;41.572;24.730;2023-05-23T03:59:56;91064.47;;;8.40;100.00
59274;BME280;45044;41.572;24.730;2023-05-23T04:02:23;91070.44;;;8.41;100.00
59274;BME280;45044;41.572;24.730;2023-05-23T04:04:50;91076.00;;;8.32;100.00
59274;BME280;45044;41.572;24.730;2023-05-23T04:07:19;91073.34;;;8.24;100.00
59274;BME280;45044;41.572;24.730;2023-05-23T04:09:46;91075.78;;;8.55;100.00
59274;BME280;45044;41.572;24.730;2023-05-23T04:12:13;91078.09;;;8.60;100.00
59274;BME280;45044;41.572;24.730;2023-05-23T04:14:41;91066.44;;;8.58;100.00
59274;BME280;45044;41.572;24.730;2023-05-23T04:17:07;91061.97;;;8.58;100.00
59274;BME280;45044;41.572;24.730;2023-05-23T04:19:35;91071.78;;;8.76;100.00
59274;BME280;45044;41.572;24.730;2023-05-23T04:22:02;91076.34;;;8.86;100.00
59274;BME280;45044;41.572;24.730;2023-05-23T04:24:28;91067.38;;;8.91;100.00
59274;BME280;45044;41.572;24.730;2023-05-23T04:26:55;91072.31;;;9.11;100.00
59274;BME280;45044;41.572;24.730;2023-05-23T04:29:22;91070.88;;;9.21;100.00
59274;BME280;45044;41.572;24.730;2023-05-23T04:31:51;91065.22;;;9.19;100.00
59274;BME280;45044;41.572;24.730;2023-05-23T04:34:18;91070.56;;;9.44;100.00
59274;BME280;45044;41.572;24.730;2023-05-23T04:36:47;91073.97;;;9.56;100.00
59274;BME280;45044;41.572;24.730;2023-05-23T04:39:15;91070.56;;;9.52;100.00
59274;BME280;45044;41.572;24.730;2023-05-23T04:41:42;91077.72;;;9.73;100.00
59274;BME280;45044;41.572;24.730;2023-05-23T04:44:11;91075.41;;;10.96;100.00
59274;BME280;45044;41.572;24.730;2023-05-23T04:46:40;91083.66;;;12.79;100.00
59274;BME280;45044;41.572;24.730;2023-05-23T04:49:11;91099.75;;;14.42;100.00
59274;BME280;45044;41.572;24.730;2023-05-23T04:51:38;91097.31;;;15.40;100.00
59274;BME280;45044;41.572;24.730;2023-05-23T04:54:05;91112.66;;;16.06;100.00
59274;BME280;45044;41.572;24.730;2023-05-23T04:56:32;91114.22;;;16.87;100.00
59274;BME280;45044;41.572;24.730;2023-05-23T04:58:59;91125.94;;;17.19;100.00
59274;BME280;45044;41.572;24.730;2023-05-23T05:01:26;91130.03;;;17.24;100.00
59274;BME280;45044;41.572;24.730;2023-05-23T05:03:53;91121.19;;;17.57;100.00
59274;BME280;45044;41.572;24.730;2023-05-23T05:06:21;91114.84;;;17.38;100.00
59274;BME280;45044;41.572;24.730;2023-05-23T05:08:48;91118.63;;;16.10;100.00
59274;BME280;45044;41.572;24.730;2023-05-23T05:11:15;91108.09;;;15.69;100.00
59274;BME280;45044;41.572;24.730;2023-05-23T05:13:42;91121.06;;;15.84;100.00
59274;BME280;45044;41.572;24.730;2023-05-23T05:16:08;91117.66;;;17.47;100.00
59274;BME280;45044;41.572;24.730;2023-05-23T05:18:35;91109.03;;;18.38;100.00
59274;BME280;45044;41.572;24.730;2023-05-23T05:21:02;91121.41;;;18.31;100.00
59274;BME280;45044;41.572;24.730;2023-05-23T05:23:30;91111.78;;;17.95;100.00
59274;BME280;45044;41.572;24.730;2023-05-23T05:25:57;91109.34;;;18.40;100.00
59274;BME280;45044;41.572;24.730;2023-05-23T05:28:23;91112.94;;;17.38;100.00
59274;BME280;45044;41.572;24.730;2023-05-23T05:30:50;91113.06;;;17.77;100.00
59274;BME280;45044;41.572;24.730;2023-05-23T05:33:20;91109.63;;;19.03;100.00
59274;BME280;45044;41.572;24.730;2023-05-23T05:35:50;91117.22;;;18.57;100.00
59274;BME280;45044;41.572;24.730;2023-05-23T05:38:17;91108.16;;;17.89;100.00
59274;BME280;45044;41.572;24.730;2023-05-23T05:40:44;91122.81;;;17.38;100.00
59274;BME280;45044;41.572;24.730;2023-05-23T05:43:10;91127.56;;;16.83;100.00
59274;BME280;45044;41.572;24.730;2023-05-23T05:45:37;91128.25;;;16.54;100.00
59274;BME280;45044;41.572;24.730;2023-05-23T05:48:05;91125.25;;;15.81;100.00
59274;BME280;45044;41.572;24.730;2023-05-23T05:50:33;91131.06;;;15.56;100.00
59274;BME280;45044;41.572;24.730;2023-05-23T05:53:00;91131.16;;;14.88;100.00
59274;BME280;45044;41.572;24.730;2023-05-23T05:55:27;91129.81;;;14.76;100.00
59274;BME280;45044;41.572;24.730;2023-05-23T05:57:54;91131.66;;;14.79;100.00
59274;BME280;45044;41.572;24.730;2023-05-23T06:00:21;91131.72;;;14.75;100.00
59274;BME280;45044;41.572;24.730;2023-05-23T06:02:48;91123.50;;;14.69;100.00
59274;BME280;45044;41.572;24.730;2023-05-23T06:05:17;91131.84;;;14.68;100.00
59274;BME280;45044;41.572;24.730;2023-05-23T06:07:47;91132.94;;;14.46;100.00
59274;BME280;45044;41.572;24.730;2023-05-23T06:10:14;91139.41;;;14.42;100.00
59274;BME280;45044;41.572;24.730;2023-05-23T06:12:41;91132.66;;;14.13;100.00
59274;BME280;45044;41.572;24.730;2023-05-23T06:15:08;91141.03;;;14.08;100.00
59274;BME280;45044;41.572;24.730;2023-05-23T06:17:35;91132.44;;;14.00;100.00
59274;BME280;45044;41.572;24.730;2023-05-23T06:20:02;91138.28;;;14.43;100.00
59274;BME280;45044;41.572;24.730;2023-05-23T06:22:30;91144.53;;;14.77;100.00
59274;BME280;45044;41.572;24.730;2023-05-23T06:24:57;91141.22;;;15.78;100.00
59274;BME280;45044;41.572;24.730;2023-05-23T06:27:24;91141.94;;;16.86;100.00
59274;BME280;45044;41.572;24.730;2023-05-23T06:29:50;91136.72;;;17.29;100.00
59274;BME280;45044;41.572;24.730;2023-05-23T06:32:17;91136.03;;;16.95;100.00
59274;BME280;45044;41.572;24.730;2023-05-23T06:34:44;91140.41;;;17.18;100.00
59274;BME280;45044;41.572;24.730;2023-05-23T06:37:11;91130.25;;;16.67;100.00
59274;BME280;45044;41.572;24.730;2023-05-23T06:39:37;91131.28;;;18.18;100.00
59274;BME280;45044;41.572;24.730;2023-05-23T06:42:04;91134.13;;;18.11;100.00
59274;BME280;45044;41.572;24.730;2023-05-23T06:44:31;91137.13;;;17.57;100.00
59274;BME280;45044;41.572;24.730;2023-05-23T06:46:58;91142.63;;;17.20;100.00
59274;BME280;45044;41.572;24.730;2023-05-23T06:49:26;91143.25;;;16.94;100.00
59274;BME280;45044;41.572;24.730;2023-05-23T06:51:53;91132.81;;;18.81;100.00
59274;BME280;45044;41.572;24.730;2023-05-23T06:54:20;91128.63;;;20.27;100.00
59274;BME280;45044;41.572;24.730;2023-05-23T06:56:47;91136.25;;;21.83;87.62
59274;BME280;45044;41.572;24.730;2023-05-23T06:59:13;91134.59;;;21.76;74.35
59274;BME280;45044;41.572;24.730;2023-05-23T07:01:40;91134.66;;;22.63;71.68
59274;BME280;45044;41.572;24.730;2023-05-23T07:04:07;91135.34;;;22.38;74.34
59274;BME280;45044;41.572;24.730;2023-05-23T07:06:34;91114.75;;;22.20;67.43
59274;BME280;45044;41.572;24.730;2023-05-23T07:09:02;91121.22;;;21.85;78.41
59274;BME280;45044;41.572;24.730;2023-05-23T07:11:29;91105.50;;;20.93;78.37
59274;BME280;45044;41.572;24.730;2023-05-23T07:13:56;91116.28;;;20.11;77.09
59274;BME280;45044;41.572;24.730;2023-05-23T07:16:23;91117.44;;;19.33;90.08
59274;BME280;45044;41.572;24.730;2023-05-23T07:18:50;91113.28;;;20.09;93.90
59274;BME280;45044;41.572;24.730;2023-05-23T07:21:17;91112.63;;;21.81;77.58
59274;BME280;45044;41.572;24.730;2023-05-23T07:23:43;91116.19;;;19.47;92.13
59274;BME280;45044;41.572;24.730;2023-05-23T07:26:10;91110.97;;;18.24;100.00
59274;BME280;45044;41.572;24.730;2023-05-23T07:28:37;91107.34;;;18.44;100.00
59274;BME280;45044;41.572;24.730;2023-05-23T07:31:04;91099.88;;;17.74;100.00
59274;BME280;45044;41.572;24.730;2023-05-23T07:33:31;91118.56;;;17.27;100.00
59274;BME280;45044;41.572;24.730;2023-05-23T07:36:00;91124.28;;;16.62;100.00
59274;BME280;45044;41.572;24.730;2023-05-23T07:38:26;91111.66;;;16.00;100.00
59274;BME280;45044;41.572;24.730;2023-05-23T07:40:53;91128.59;;;15.86;100.00
59274;BME280;45044;41.572;24.730;2023-05-23T07:43:36;91137.28;;;15.86;100.00
59274;BME280;45044;41.572;24.730;2023-05-23T07:46:05;91135.19;;;15.77;100.00
59274;BME280;45044;41.572;24.730;2023-05-23T07:48:32;91131.34;;;15.62;100.00
59274;BME280;45044;41.572;24.730;2023-05-23T07:50:58;91138.00;;;15.50;100.00
59274;BME280;45044;41.572;24.730;2023-05-23T07:53:25;91140.09;;;15.79;100.00
59274;BME280;45044;41.572;24.730;2023-05-23T07:55:54;91143.84;;;16.85;100.00
59274;BME280;45044;41.572;24.730;2023-05-23T07:58:22;91129.25;;;16.77;100.00
59274;BME280;45044;41.572;24.730;2023-05-23T08:00:49;91137.72;;;16.72;100.00
59274;BME280;45044;41.572;24.730;2023-05-23T08:03:18;91137.81;;;16.51;100.00
59274;BME280;45044;41.572;24.730;2023-05-23T08:05:45;91140.03;;;16.53;100.00
59274;BME280;45044;41.572;24.730;2023-05-23T08:08:12;91139.28;;;16.36;100.00
59274;BME280;45044;41.572;24.730;2023-05-23T08:10:39;91140.34;;;16.88;100.00
59274;BME280;45044;41.572;24.730;2023-05-23T08:13:08;91134.91;;;17.09;100.00
59274;BME280;45044;41.572;24.730;2023-05-23T08:15:35;91138.81;;;17.93;100.00
59274;BME280;45044;41.572;24.730;2023-05-23T08:18:03;91130.41;;;18.08;100.00
59274;BME280;45044;41.572;24.730;2023-05-23T08:20:30;91125.31;;;18.40;100.00
59274;BME280;45044;41.572;24.730;2023-05-23T08:23:01;91129.34;;;19.19;100.00
59274;BME280;45044;41.572;24.730;2023-05-23T08:25:28;91121.16;;;19.81;100.00
59274;BME280;45044;41.572;24.730;2023-05-23T08:27:59;91125.13;;;19.54;82.73
59274;BME280;45044;41.572;24.730;2023-05-23T08:30:27;91135.72;;;19.67;84.10
59274;BME280;45044;41.572;24.730;2023-05-23T08:32:55;91127.22;;;18.52;100.00
59274;BME280;45044;41.572;24.730;2023-05-23T08:35:22;91132.81;;;18.81;91.54
59274;BME280;45044;41.572;24.730;2023-05-23T08:37:49;91120.41;;;18.64;100.00
59274;BME280;45044;41.572;24.730;2023-05-23T08:40:19;91130.13;;;18.94;100.00
59274;BME280;45044;41.572;24.730;2023-05-23T08:42:50;91111.41;;;18.84;100.00
59274;BME280;45044;41.572;24.730;2023-05-23T08:45:17;91112.00;;;17.88;100.00
59274;BME280;45044;41.572;24.730;2023-05-23T08:47:45;91119.69;;;18.25;100.00
59274;BME280;45044;41.572;24.730;2023-05-23T08:50:13;91138.63;;;18.40;87.36
59274;BME280;45044;41.572;24.730;2023-05-23T08:53:04;91138.06;;;17.93;100.00
59274;BME280;45044;41.572;24.730;2023-05-23T08:55:30;91142.50;;;17.40;100.00
59274;BME280;45044;41.572;24.730;2023-05-23T08:57:57;91151.44;;;17.00;100.00
59274;BME280;45044;41.572;24.730;2023-05-23T09:00:27;91137.28;;;16.90;100.00
59274;BME280;45044;41.572;24.730;2023-05-23T09:02:54;91137.84;;;17.15;100.00
59274;BME280;45044;41.572;24.730;2023-05-23T09:05:21;91141.41;;;17.67;100.00
59274;BME280;45044;41.572;24.730;2023-05-23T09:07:48;91138.09;;;18.45;99.48
59274;BME280;45044;41.572;24.730;2023-05-23T09:10:18;91125.50;;;18.59;100.00
59274;BME280;45044;41.572;24.730;2023-05-23T09:12:48;91131.91;;;19.10;97.96
59274;BME280;45044;41.572;24.730;2023-05-23T09:15:14;91133.75;;;19.58;90.75
59274;BME280;45044;41.572;24.730;2023-05-23T09:17:43;91135.03;;;19.31;82.67
59274;BME280;45044;41.572;24.730;2023-05-23T09:20:12;91134.47;;;19.13;87.29
59274;BME280;45044;41.572;24.730;2023-05-23T09:22:40;91135.91;;;18.79;83.79
59274;BME280;45044;41.572;24.730;2023-05-23T09:25:07;91131.22;;;18.83;100.00
59274;BME280;45044;41.572;24.730;2023-05-23T09:27:34;91145.34;;;18.18;80.02
59274;BME280;45044;41.572;24.730;2023-05-23T09:30:06;91142.97;;;18.47;90.14
59274;BME280;45044;41.572;24.730;2023-05-23T09:32:32;91136.06;;;18.62;83.80
59274;BME280;45044;41.572;24.730;2023-05-23T09:35:03;91143.44;;;18.19;90.24
59274;BME280;45044;41.572;24.730;2023-05-23T09:37:38;91156.09;;;17.85;80.64
59274;BME280;45044;41.572;24.730;2023-05-23T09:40:11;91152.31;;;17.86;83.43
59274;BME280;45044;41.572;24.730;2023-05-23T09:42:46;91147.00;;;17.56;100.00
59274;BME280;45044;41.572;24.730;2023-05-23T09:45:14;91149.16;;;18.17;100.00
59274;BME280;45044;41.572;24.730;2023-05-23T09:47:51;91153.28;;;18.05;99.58
59274;BME280;45044;41.572;24.730;2023-05-23T09:50:19;91155.19;;;17.92;100.00
59274;BME280;45044;41.572;24.730;2023-05-23T09:52:46;91156.97;;;17.52;100.00
59274;BME280;45044;41.572;24.730;2023-05-23T09:55:14;91151.13;;;17.87;98.88
59274;BME280;45044;41.572;24.730;2023-05-23T09:57:42;91154.69;;;18.23;89.50
59274;BME280;45044;41.572;24.730;2023-05-23T10:00:10;91158.16;;;17.94;100.00
59274;BME280;45044;41.572;24.730;2023-05-23T10:02:53;91152.88;;;18.20;100.00
59274;BME280;45044;41.572;24.730;2023-05-23T10:05:37;91159.41;;;17.76;100.00
59274;BME280;45044;41.572;24.730;2023-05-23T10:08:07;91150.34;;;18.29;100.00
59274;BME280;45044;41.572;24.730;2023-05-23T10:13:27;91143.72;;;19.44;100.00
59274;BME280;45044;41.572;24.730;2023-05-23T10:15:58;91134.13;;;19.24;95.51
59274;BME280;45044;41.572;24.730;2023-05-23T10:18:42;91126.03;;;19.37;79.10
59274;BME280;45044;41.572;24.730;2023-05-23T10:21:11;91120.44;;;19.90;86.70
59274;BME280;45044;41.572;24.730;2023-05-23T10:23:41;91124.38;;;19.75;85.59
59274;BME280;45044;41.572;24.730;2023-05-23T10:26:10;91125.38;;;20.32;69.60
59274;BME280;45044;41.572;24.730;2023-05-23T10:28:38;91128.06;;;20.32;70.13
59274;BME280;45044;41.572;24.730;2023-05-23T10:31:07;91131.63;;;19.30;68.88
59274;BME280;45044;41.572;24.730;2023-05-23T10:33:40;91135.41;;;19.42;81.08
59274;BME280;45044;41.572;24.730;2023-05-23T10:36:13;91125.38;;;19.46;73.96
59274;BME280;45044;41.572;24.730;2023-05-23T10:41:28;91124.00;;;19.64;79.58
59274;BME280;45044;41.572;24.730;2023-05-23T10:44:10;91123.03;;;20.03;88.23
59274;BME280;45044;41.572;24.730;2023-05-23T10:46:56;91118.00;;;19.73;98.71
59274;BME280;45044;41.572;24.730;2023-05-23T10:52:06;91116.53;;;19.49;88.75
59274;BME280;45044;41.572;24.730;2023-05-23T10:54:35;91094.56;;;18.39;81.93
59274;BME280;45044;41.572;24.730;2023-05-23T10:57:03;91126.16;;;18.63;89.56
59274;BME280;45044;41.572;24.730;2023-05-23T10:59:30;91118.84;;;18.41;100.00
59274;BME280;45044;41.572;24.730;2023-05-23T11:01:59;91126.72;;;18.31;97.73
59274;BME280;45044;41.572;24.730;2023-05-23T11:04:27;91122.44;;;18.47;100.00
59274;BME280;45044;41.572;24.730;2023-05-23T11:06:55;91122.00;;;18.10;100.00
59274;BME280;45044;41.572;24.730;2023-05-23T11:09:22;91116.56;;;18.52;100.00
59274;BME280;45044;41.572;24.730;2023-05-23T11:17:01;91119.84;;;19.18;100.00
59274;BME280;45044;41.572;24.730;2023-05-23T11:22:26;91104.84;;;19.34;100.00
59274;BME280;45044;41.572;24.730;2023-05-23T11:24:55;91097.31;;;20.18;100.00
59274;BME280;45044;41.572;24.730;2023-05-23T11:27:27;91092.38;;;20.58;91.21
59274;BME280;45044;41.572;24.730;2023-05-23T11:29:59;91089.00;;;20.16;94.48
59274;BME280;45044;41.572;24.730;2023-05-23T11:32:27;91089.13;;;20.44;76.02
59274;BME280;45044;41.572;24.730;2023-05-23T11:35:05;91090.34;;;20.72;84.89
59274;BME280;45044;41.572;24.730;2023-05-23T11:37:34;91083.06;;;20.72;83.33
59274;BME280;45044;41.572;24.730;2023-05-23T11:40:25;91092.91;;;21.03;91.64
59274;BME280;45044;41.572;24.730;2023-05-23T11:42:53;91077.28;;;21.49;64.15
59274;BME280;45044;41.572;24.730;2023-05-23T11:45:24;91069.94;;;21.77;64.50
59274;BME280;45044;41.572;24.730;2023-05-23T11:47:51;91060.94;;;21.65;71.96
59274;BME280;45044;41.572;24.730;2023-05-23T11:50:19;91072.22;;;21.70;74.48
59274;BME280;45044;41.572;24.730;2023-05-23T11:52:49;91082.47;;;21.71;67.15
59274;BME280;45044;41.572;24.730;2023-05-23T11:55:20;91087.97;;;21.58;63.92
59274;BME280;45044;41.572;24.730;2023-05-23T11:57:48;91077.19;;;21.15;65.22
59274;BME280;45044;41.572;24.730;2023-05-23T12:00:15;91079.09;;;21.05;65.83
59274;BME280;45044;41.572;24.730;2023-05-23T12:02:44;91078.81;;;20.93;71.21
59274;BME280;45044;41.572;24.730;2023-05-23T12:05:13;91075.44;;;20.01;69.14
59274;BME280;45044;41.572;24.730;2023-05-23T12:10:09;91102.38;;;19.17;70.76
59274;BME280;45044;41.572;24.730;2023-05-23T12:12:37;91102.09;;;18.66;93.20
59274;BME280;45044;41.572;24.730;2023-05-23T12:15:07;91103.94;;;18.30;100.00
59274;BME280;45044;41.572;24.730;2023-05-23T12:17:38;91118.69;;;17.36;100.00
59274;BME280;45044;41.572;24.730;2023-05-23T12:20:05;91121.41;;;17.20;100.00
59274;BME280;45044;41.572;24.730;2023-05-23T12:22:33;91132.59;;;16.64;100.00
59274;BME280;45044;41.572;24.730;2023-05-23T12:25:00;91142.78;;;16.49;100.00
59274;BME280;45044;41.572;24.730;2023-05-23T12:27:28;91154.06;;;16.37;100.00
59274;BME280;45044;41.572;24.730;2023-05-23T12:30:09;91157.38;;;16.41;100.00
59274;BME280;45044;41.572;24.730;2023-05-23T12:32:44;91151.66;;;16.43;100.00
59274;BME280;45044;41.572;24.730;2023-05-23T12:35:14;91152.16;;;16.00;100.00
59274;BME280;45044;41.572;24.730;2023-05-23T12:37:45;91145.38;;;15.79;100.00
59274;BME280;45044;41.572;24.730;2023-05-23T12:40:13;91163.31;;;15.91;100.00
59274;BME280;45044;41.572;24.730;2023-05-23T12:42:48;91174.59;;;15.96;100.00
59274;BME280;45044;41.572;24.730;2023-05-23T12:45:17;91173.16;;;15.71;100.00
59274;BME280;45044;41.572;24.730;2023-05-23T12:47:43;91164.00;;;15.75;100.00
59274;BME280;45044;41.572;24.730;2023-05-23T12:50:10;91173.03;;;15.37;100.00
59274;BME280;45044;41.572;24.730;2023-05-23T12:52:38;91174.81;;;15.64;100.00
59274;BME280;45044;41.572;24.730;2023-05-23T12:55:07;91171.22;;;15.54;100.00
59274;BME280;45044;41.572;24.730;2023-05-23T12:57:34;91166.38;;;15.90;100.00
59274;BME280;45044;41.572;24.730;2023-05-23T13:00:01;91158.94;;;16.38;100.00
59274;BME280;45044;41.572;24.730;2023-05-23T13:02:28;91152.97;;;15.97;100.00
59274;BME280;45044;41.572;24.730;2023-05-23T13:04:56;91153.09;;;16.10;100.00
59274;BME280;45044;41.572;24.730;2023-05-23T13:07:23;91154.31;;;16.43;100.00
59274;BME280;45044;41.572;24.730;2023-05-23T13:09:50;91150.50;;;16.77;100.00
59274;BME280;45044;41.572;24.730;2023-05-23T13:12:17;91142.97;;;17.05;100.00
59274;BME280;45044;41.572;24.730;2023-05-23T13:14:43;91143.78;;;17.35;100.00
59274;BME280;45044;41.572;24.730;2023-05-23T13:17:10;91139.75;;;18.00;100.00
59274;BME280;45044;41.572;24.730;2023-05-23T13:19:37;91125.75;;;18.25;100.00